createdAt,value
2017-12-19T00:01:48.188Z,2.00
2017-12-19T00:04:17.248Z,2.00
2017-12-19T00:06:45.525Z,2.00
2017-12-19T00:09:13.794Z,2.10
2017-12-19T00:11:42.920Z,2.00
2017-12-19T00:14:12.316Z,2.00
2017-12-19T00:16:40.556Z,2.00
2017-12-19T00:19:08.839Z,2.00
2017-12-19T00:21:37.089Z,2.10
2017-12-19T00:24:05.322Z,2.00
2017-12-19T00:26:33.639Z,2.10
2017-12-19T00:29:01.910Z,2.10
2017-12-19T00:31:30.564Z,2.10
2017-12-19T00:33:58.907Z,2.10
2017-12-19T00:36:27.183Z,2.10
2017-12-19T00:38:55.473Z,2.00
2017-12-19T00:41:23.761Z,2.00
2017-12-19T00:43:52.069Z,2.10
2017-12-19T00:46:21.131Z,2.10
2017-12-19T00:48:49.728Z,2.10
2017-12-19T00:51:18.033Z,2.10
2017-12-19T00:53:47.088Z,2.10
2017-12-19T00:56:15.389Z,2.10
2017-12-19T00:58:43.664Z,2.10
2017-12-19T01:01:12.298Z,2.10
2017-12-19T01:03:40.532Z,2.20
2017-12-19T01:09:03.424Z,2.10
2017-12-19T01:11:32.053Z,2.20
2017-12-19T01:14:00.339Z,2.20
2017-12-19T01:16:28.582Z,2.20
2017-12-19T01:18:56.857Z,2.20
2017-12-19T01:21:25.139Z,2.20
2017-12-19T01:23:53.725Z,2.20
2017-12-19T01:26:22.019Z,2.10
2017-12-19T01:28:50.303Z,2.10
2017-12-19T01:31:18.584Z,2.20
2017-12-19T01:33:46.824Z,2.20
2017-12-19T01:36:15.088Z,2.20
2017-12-19T01:38:43.327Z,2.20
2017-12-19T01:41:11.574Z,2.20
2017-12-19T01:43:40.644Z,2.20
2017-12-19T01:46:08.886Z,2.20
2017-12-19T01:48:37.904Z,2.20
2017-12-19T01:51:06.157Z,2.20
2017-12-19T01:53:35.517Z,2.20
2017-12-19T01:56:03.742Z,2.20
2017-12-19T01:58:32.735Z,2.20
2017-12-19T02:01:01.802Z,2.30
2017-12-19T02:03:30.081Z,2.30
2017-12-19T02:05:58.666Z,2.30
2017-12-19T02:08:26.908Z,2.30
2017-12-19T02:10:55.155Z,2.20
2017-12-19T02:13:24.175Z,2.20
2017-12-19T02:15:52.518Z,2.20
2017-12-19T02:18:21.202Z,2.20
2017-12-19T02:20:50.271Z,2.20
2017-12-19T02:23:18.513Z,2.20
2017-12-19T02:25:46.822Z,2.30
2017-12-19T02:28:15.056Z,2.20
2017-12-19T02:30:44.252Z,2.30
2017-12-19T02:33:12.496Z,2.30
2017-12-19T02:35:41.262Z,2.30
2017-12-19T02:38:10.317Z,2.20
2017-12-19T02:40:38.600Z,2.20
2017-12-19T02:43:18.799Z,2.20
2017-12-19T02:45:47.076Z,2.20
2017-12-19T02:48:15.739Z,2.30
2017-12-19T02:50:44.050Z,2.30
2017-12-19T02:53:12.340Z,2.30
2017-12-19T02:55:41.423Z,2.30
2017-12-19T02:58:09.660Z,2.30
2017-12-19T03:00:37.963Z,2.30
2017-12-19T03:03:06.205Z,2.40
2017-12-19T03:05:34.843Z,2.30
2017-12-19T03:08:03.073Z,2.30
2017-12-19T03:10:31.353Z,2.20
2017-12-19T03:13:00.520Z,2.20
2017-12-19T03:15:28.803Z,2.20
2017-12-19T03:17:57.115Z,2.20
2017-12-19T03:20:25.356Z,2.30
2017-12-19T03:22:53.957Z,2.30
2017-12-19T03:25:22.208Z,2.30
2017-12-19T03:27:51.230Z,2.20
2017-12-19T03:30:19.487Z,2.20
2017-12-19T03:32:47.790Z,2.20
2017-12-19T03:35:16.074Z,2.20
2017-12-19T03:37:44.346Z,2.20
2017-12-19T03:40:12.989Z,2.20
2017-12-19T03:42:42.060Z,2.20
2017-12-19T03:45:10.299Z,2.20
2017-12-19T03:47:38.586Z,2.20
2017-12-19T03:50:07.668Z,2.20
2017-12-19T03:52:36.342Z,2.20
2017-12-19T03:55:04.609Z,2.10
2017-12-19T03:57:33.617Z,2.10
2017-12-19T04:00:01.963Z,2.20
2017-12-19T04:02:30.266Z,2.20
2017-12-19T04:04:58.896Z,2.20
2017-12-19T04:07:27.184Z,2.10
2017-12-19T04:09:55.435Z,2.10
2017-12-19T04:12:23.697Z,2.10
2017-12-19T04:14:52.007Z,2.10
2017-12-19T04:17:20.296Z,2.10
2017-12-19T04:19:48.558Z,2.00
2017-12-19T04:22:16.822Z,2.00
2017-12-19T04:24:45.114Z,2.00
2017-12-19T04:27:13.822Z,2.10
2017-12-19T04:29:42.127Z,2.10
2017-12-19T04:32:11.156Z,2.10
2017-12-19T04:34:39.426Z,2.10
2017-12-19T04:37:07.730Z,2.10
2017-12-19T04:39:36.825Z,2.00
2017-12-19T04:42:05.129Z,2.00
2017-12-19T04:44:34.550Z,1.90
2017-12-19T04:47:03.626Z,1.90
2017-12-19T04:49:31.898Z,1.90
2017-12-19T04:52:00.200Z,1.80
2017-12-19T04:54:29.261Z,1.80
2017-12-19T04:56:57.537Z,1.80
2017-12-19T04:59:25.790Z,1.90
2017-12-19T05:01:54.526Z,1.90
2017-12-19T05:04:23.591Z,1.90
2017-12-19T05:06:51.845Z,1.90
2017-12-19T05:09:20.116Z,1.90
2017-12-19T05:11:48.403Z,2.00
2017-12-19T05:14:16.755Z,2.00
2017-12-19T05:16:44.996Z,2.00
2017-12-19T05:19:13.317Z,2.00
2017-12-19T05:21:41.622Z,2.00
2017-12-19T05:24:09.909Z,2.00
2017-12-19T05:26:38.195Z,2.10
2017-12-19T05:29:06.437Z,2.10
2017-12-19T05:31:35.079Z,2.20
2017-12-19T05:34:03.339Z,2.10
2017-12-19T05:36:31.644Z,2.20
2017-12-19T05:39:00.668Z,2.10
2017-12-19T05:41:28.926Z,2.20
2017-12-19T05:43:57.531Z,2.20
2017-12-19T05:46:25.772Z,2.30
2017-12-19T05:48:54.788Z,2.20
2017-12-19T05:51:23.072Z,2.20
2017-12-19T05:53:51.407Z,2.20
2017-12-19T05:56:20.075Z,2.20
2017-12-19T05:58:49.078Z,2.20
2017-12-19T06:01:17.344Z,2.20
2017-12-19T06:03:45.667Z,2.20
2017-12-19T06:06:14.733Z,2.20
2017-12-19T06:08:43.326Z,2.20
2017-12-19T06:11:11.565Z,2.20
2017-12-19T06:13:39.858Z,2.20
2017-12-19T06:16:08.123Z,2.10
2017-12-19T06:18:36.406Z,2.00
2017-12-19T06:21:05.168Z,2.00
2017-12-19T06:23:33.431Z,2.00
2017-12-19T06:26:01.701Z,2.10
2017-12-19T06:28:29.973Z,2.20
2017-12-19T06:30:58.226Z,2.10
2017-12-19T06:33:27.582Z,2.10
2017-12-19T06:35:55.837Z,2.10
2017-12-19T06:38:24.153Z,2.10
2017-12-19T06:40:52.415Z,2.20
2017-12-19T06:43:20.680Z,2.20
2017-12-19T06:45:49.277Z,2.30
2017-12-19T06:48:17.567Z,2.30
2017-12-19T06:50:45.862Z,2.30
2017-12-19T06:53:14.165Z,2.30
2017-12-19T06:55:43.794Z,2.30
2017-12-19T06:58:12.396Z,2.20
2017-12-19T07:00:40.642Z,2.20
2017-12-19T07:03:08.926Z,2.20
2017-12-19T07:05:37.196Z,2.20
2017-12-19T07:08:06.220Z,2.10
2017-12-19T07:10:34.496Z,2.20
2017-12-19T07:13:02.766Z,2.10
2017-12-19T07:15:31.409Z,2.10
2017-12-19T07:17:59.642Z,2.20
2017-12-19T07:20:27.938Z,2.30
2017-12-19T07:22:56.181Z,2.30
2017-12-19T07:25:24.455Z,2.30
2017-12-19T07:27:52.721Z,2.40
2017-12-19T07:30:21.017Z,2.40
2017-12-19T07:32:49.637Z,2.50
2017-12-19T07:35:17.880Z,2.40
2017-12-19T07:37:46.174Z,2.50
2017-12-19T07:40:14.471Z,2.50
2017-12-19T07:42:42.701Z,2.50
2017-12-19T07:45:10.970Z,2.60
2017-12-19T07:47:39.223Z,2.60
2017-12-19T07:50:08.306Z,2.60
2017-12-19T07:52:36.582Z,2.60
2017-12-19T07:55:04.857Z,2.60
2017-12-19T07:57:33.163Z,2.60
2017-12-19T08:00:02.220Z,2.70
2017-12-19T08:02:30.524Z,2.70
2017-12-19T08:04:58.799Z,2.70
2017-12-19T08:07:27.446Z,2.70
2017-12-19T08:09:55.731Z,2.70
2017-12-19T08:12:23.965Z,2.70
2017-12-19T08:14:52.274Z,2.70
2017-12-19T08:17:20.561Z,2.70
2017-12-19T08:19:48.808Z,2.70
2017-12-19T08:22:17.088Z,2.70
2017-12-19T08:24:45.793Z,2.70
2017-12-19T08:27:14.040Z,2.80
2017-12-19T08:29:42.324Z,2.80
2017-12-19T08:32:10.576Z,2.80
2017-12-19T08:34:39.635Z,2.80
2017-12-19T08:37:07.935Z,2.80
2017-12-19T08:39:36.207Z,2.80
2017-12-19T08:42:04.889Z,2.80
2017-12-19T08:44:33.117Z,2.80
2017-12-19T08:47:01.411Z,2.90
2017-12-19T08:49:29.660Z,2.90
2017-12-19T08:51:57.934Z,3.00
2017-12-19T08:54:26.182Z,3.10
2017-12-19T08:56:55.240Z,3.20
2017-12-19T08:59:23.956Z,3.20
2017-12-19T09:01:52.209Z,3.20
2017-12-19T09:04:20.445Z,3.20
2017-12-19T09:06:48.715Z,3.20
2017-12-19T09:09:17.020Z,3.30
2017-12-19T09:11:46.339Z,3.40
2017-12-19T09:14:14.612Z,3.30
2017-12-19T09:16:42.892Z,3.30
2017-12-19T09:19:11.676Z,3.40
2017-12-19T09:21:39.929Z,3.40
2017-12-19T09:24:08.577Z,3.50
2017-12-19T09:26:36.853Z,3.50
2017-12-19T09:29:05.148Z,3.50
2017-12-19T09:31:34.166Z,3.60
2017-12-19T09:34:02.413Z,3.60
2017-12-19T09:36:31.448Z,3.70
2017-12-19T09:38:59.690Z,3.70
2017-12-19T09:41:29.174Z,3.80
2017-12-19T09:43:57.418Z,3.80
2017-12-19T09:46:25.704Z,3.90
2017-12-19T09:48:53.941Z,3.90
2017-12-19T09:51:22.198Z,4.00
2017-12-19T09:53:51.635Z,4.10
2017-12-19T09:56:19.932Z,4.10
2017-12-19T09:58:48.168Z,4.10
2017-12-19T10:01:16.484Z,4.20
2017-12-19T10:03:45.376Z,4.20
2017-12-19T10:06:13.629Z,4.20
2017-12-19T10:08:41.869Z,4.30
2017-12-19T10:11:11.228Z,4.30
2017-12-19T10:13:39.538Z,4.30
2017-12-19T10:16:07.783Z,4.40
2017-12-19T10:18:36.061Z,4.40
2017-12-19T10:21:04.302Z,4.50
2017-12-19T10:23:32.576Z,4.50
2017-12-19T10:26:00.837Z,4.60
2017-12-19T10:28:30.241Z,4.60
2017-12-19T10:30:58.520Z,4.50
2017-12-19T10:33:26.814Z,4.60
2017-12-19T10:35:55.128Z,4.50
2017-12-19T10:38:23.408Z,4.60
2017-12-19T10:40:51.664Z,4.60
2017-12-19T10:43:19.918Z,4.80
2017-12-19T10:45:48.559Z,4.90
2017-12-19T10:48:16.835Z,5.10
2017-12-19T10:50:45.123Z,5.30
2017-12-19T10:53:13.372Z,5.30
2017-12-19T10:55:41.629Z,5.40
2017-12-19T10:58:09.894Z,5.60
2017-12-19T11:00:38.168Z,5.70
2017-12-19T11:03:07.604Z,5.90
2017-12-19T11:05:36.672Z,5.90
2017-12-19T11:08:04.944Z,5.90
2017-12-19T11:10:33.243Z,6.00
2017-12-19T11:13:01.493Z,6.00
2017-12-19T11:15:29.784Z,6.10
2017-12-19T11:17:58.065Z,6.20
2017-12-19T11:20:26.732Z,6.20
2017-12-19T11:22:54.930Z,6.20
2017-12-19T11:25:23.229Z,6.30
2017-12-19T11:27:51.490Z,6.30
2017-12-19T11:30:19.746Z,6.30
2017-12-19T11:32:48.582Z,6.40
2017-12-19T11:35:16.876Z,6.60
2017-12-19T11:37:45.592Z,6.80
2017-12-19T11:40:14.606Z,7.20
2017-12-19T11:42:42.902Z,7.20
2017-12-19T11:45:11.162Z,7.40
2017-12-19T11:47:39.469Z,7.60
2017-12-19T11:50:07.764Z,7.60
2017-12-19T11:52:36.003Z,7.60
2017-12-19T11:55:04.598Z,7.70
2017-12-19T11:57:33.654Z,7.50
2017-12-19T12:00:01.961Z,7.40
2017-12-19T12:02:30.277Z,7.40
2017-12-19T12:04:58.591Z,7.40
2017-12-19T12:07:27.950Z,7.40
2017-12-19T12:09:56.240Z,7.40
2017-12-19T12:12:24.531Z,7.30
2017-12-19T12:14:53.564Z,7.50
2017-12-19T12:17:21.861Z,7.40
2017-12-19T12:19:50.488Z,7.60
2017-12-19T12:22:18.733Z,7.80
2017-12-19T12:24:47.003Z,8.00
2017-12-19T12:27:15.264Z,8.20
2017-12-19T12:29:43.518Z,8.50
2017-12-19T12:32:12.139Z,8.70
2017-12-19T12:34:40.373Z,8.80
2017-12-19T12:37:09.433Z,9.10
2017-12-19T12:39:37.733Z,9.10
2017-12-19T12:42:06.752Z,9.30
2017-12-19T12:44:35.059Z,9.20
2017-12-19T12:47:03.328Z,9.20
2017-12-19T12:49:31.945Z,9.10
2017-12-19T12:52:00.218Z,9.20
2017-12-19T12:54:28.513Z,9.20
2017-12-19T12:56:56.809Z,9.20
2017-12-19T12:59:25.853Z,9.10
2017-12-19T13:01:54.426Z,9.10
2017-12-19T13:04:22.733Z,8.90
2017-12-19T13:06:51.034Z,8.80
2017-12-19T13:09:19.285Z,8.70
2017-12-19T13:11:47.574Z,8.50
2017-12-19T13:14:15.902Z,8.40
2017-12-19T13:16:44.181Z,8.30
2017-12-19T13:19:12.441Z,8.10
2017-12-19T13:21:40.716Z,8.00
2017-12-19T13:24:10.101Z,7.60
2017-12-19T13:26:39.530Z,7.50
2017-12-19T13:29:07.811Z,7.50
2017-12-19T13:31:36.124Z,7.30
2017-12-19T13:34:04.473Z,7.20
2017-12-19T13:36:33.893Z,7.00
2017-12-19T13:39:02.948Z,7.00
2017-12-19T13:41:31.953Z,6.90
2017-12-19T13:44:00.261Z,6.90
2017-12-19T13:46:28.552Z,6.80
2017-12-19T13:48:56.875Z,6.70
2017-12-19T13:51:25.890Z,6.50
2017-12-19T13:53:54.536Z,6.40
2017-12-19T13:56:22.819Z,6.30
2017-12-19T13:58:51.844Z,6.10
2017-12-19T14:01:20.878Z,6.10
2017-12-19T14:03:49.968Z,6.00
2017-12-19T14:06:18.660Z,5.90
2017-12-19T14:08:47.013Z,5.90
2017-12-19T14:11:15.250Z,5.80
2017-12-19T14:13:44.325Z,5.60
2017-12-19T14:16:12.618Z,5.60
2017-12-19T14:18:41.648Z,5.50
2017-12-19T14:21:09.904Z,5.50
2017-12-19T14:23:38.510Z,5.50
2017-12-19T14:26:06.824Z,5.50
2017-12-19T14:28:35.076Z,5.40
2017-12-19T14:31:03.393Z,5.40
2017-12-19T14:33:31.669Z,5.40
2017-12-19T14:35:59.926Z,5.30
2017-12-19T14:38:28.220Z,5.20
2017-12-19T14:40:56.508Z,5.20
2017-12-19T14:43:24.817Z,5.20
2017-12-19T14:45:53.440Z,5.20
2017-12-19T14:48:21.736Z,5.10
2017-12-19T14:50:49.975Z,5.10
2017-12-19T14:53:18.316Z,5.10
2017-12-19T14:55:46.563Z,5.10
2017-12-19T14:58:15.575Z,5.10
2017-12-19T15:00:43.855Z,5.00
2017-12-19T15:03:12.106Z,5.00
2017-12-19T15:05:40.412Z,5.00
2017-12-19T15:08:08.706Z,4.90
2017-12-19T15:10:38.193Z,4.90
2017-12-19T15:13:06.505Z,4.90
2017-12-19T15:15:34.788Z,4.90
2017-12-19T15:18:03.088Z,4.90
2017-12-19T15:20:31.363Z,4.80
2017-12-19T15:22:59.663Z,4.90
2017-12-19T15:25:27.948Z,4.80
2017-12-19T15:27:56.550Z,4.70
2017-12-19T15:30:25.629Z,4.80
2017-12-19T15:32:53.875Z,4.80
2017-12-19T15:35:22.135Z,4.80
2017-12-19T15:37:50.374Z,4.80
2017-12-19T15:40:19.405Z,4.70
2017-12-19T15:42:47.641Z,4.70
2017-12-19T15:45:16.733Z,4.60
2017-12-19T15:47:44.985Z,4.60
2017-12-19T15:50:13.242Z,4.60
2017-12-19T15:52:41.497Z,4.50
2017-12-19T15:55:09.801Z,4.50
2017-12-19T15:57:38.447Z,4.50
2017-12-19T16:00:06.764Z,4.40
2017-12-19T16:02:35.072Z,4.30
2017-12-19T16:05:03.392Z,4.30
2017-12-19T16:07:31.633Z,4.30
2017-12-19T16:10:00.672Z,4.40
2017-12-19T16:12:28.973Z,4.30
2017-12-19T16:14:57.581Z,4.40
2017-12-19T16:17:25.885Z,4.30
2017-12-19T16:19:54.932Z,4.30
2017-12-19T16:22:23.224Z,4.30
2017-12-19T16:24:51.537Z,4.30
2017-12-19T16:27:20.614Z,4.30
2017-12-19T16:29:48.936Z,4.20
2017-12-19T16:32:17.551Z,4.20
2017-12-19T16:34:45.886Z,4.20
2017-12-19T16:37:14.180Z,4.20
2017-12-19T16:39:42.453Z,4.10
2017-12-19T16:42:11.299Z,4.10
2017-12-19T16:44:39.614Z,4.20
2017-12-19T16:47:07.915Z,4.20
2017-12-19T16:49:36.623Z,4.20
2017-12-19T16:52:04.897Z,4.20
2017-12-19T16:54:33.162Z,4.20
2017-12-19T16:57:01.477Z,4.20
2017-12-19T16:59:29.782Z,4.20
2017-12-19T17:01:58.875Z,4.20
2017-12-19T17:04:27.882Z,4.20
2017-12-19T17:06:56.852Z,4.20
2017-12-19T17:09:25.139Z,4.20
2017-12-19T17:11:54.145Z,4.10
2017-12-19T17:14:22.446Z,4.10
2017-12-19T17:16:50.735Z,4.10
2017-12-19T17:19:19.029Z,4.10
2017-12-19T17:21:47.333Z,4.00
2017-12-19T17:24:16.707Z,4.00
2017-12-19T17:26:45.012Z,4.00
2017-12-19T17:29:14.036Z,4.00
2017-12-19T17:31:42.366Z,4.00
2017-12-19T17:34:10.660Z,4.00
2017-12-19T17:36:39.685Z,3.90
2017-12-19T17:39:07.955Z,3.90
2017-12-19T17:41:36.284Z,3.90
2017-12-19T17:44:04.590Z,3.90
2017-12-19T17:46:33.988Z,3.80
2017-12-19T17:49:02.263Z,3.90
2017-12-19T17:51:30.517Z,3.80
2017-12-19T17:53:58.799Z,3.90
2017-12-19T17:56:27.093Z,3.80
2017-12-19T17:58:55.370Z,3.80
2017-12-19T18:01:23.598Z,3.80
2017-12-19T18:03:52.246Z,3.90
2017-12-19T18:06:21.331Z,3.90
2017-12-19T18:08:50.423Z,3.90
2017-12-19T18:11:18.727Z,3.90
2017-12-19T18:13:47.003Z,3.90
2017-12-19T18:16:15.274Z,3.90
2017-12-19T18:18:43.546Z,3.90
2017-12-19T18:21:12.589Z,3.80
2017-12-19T18:23:40.857Z,3.80
2017-12-19T18:26:09.912Z,3.80
2017-12-19T18:28:39.005Z,3.80
2017-12-19T18:31:08.014Z,3.90
2017-12-19T18:33:36.332Z,3.90
2017-12-19T18:36:05.358Z,3.90
2017-12-19T18:38:33.994Z,3.90
2017-12-19T18:41:03.181Z,3.90
2017-12-19T18:43:31.472Z,3.80
2017-12-19T18:45:59.775Z,3.80
2017-12-19T18:48:28.051Z,3.70
2017-12-19T18:50:56.327Z,3.70
2017-12-19T18:53:24.627Z,3.80
2017-12-19T18:55:53.306Z,3.80
2017-12-19T18:58:22.315Z,3.80
2017-12-19T19:00:50.630Z,3.80
2017-12-19T19:03:18.944Z,3.80
2017-12-19T19:05:47.189Z,3.80
2017-12-19T19:08:15.849Z,3.90
2017-12-19T19:10:44.099Z,3.90
2017-12-19T19:13:12.411Z,3.90
2017-12-19T19:15:41.486Z,3.90
2017-12-19T19:18:10.509Z,3.90
2017-12-19T19:20:38.803Z,3.90
2017-12-19T19:23:07.052Z,3.90
2017-12-19T19:25:35.751Z,3.90
2017-12-19T19:28:03.962Z,3.90
2017-12-19T19:30:32.296Z,3.90
2017-12-19T19:33:00.570Z,3.90
2017-12-19T19:35:28.877Z,3.90
2017-12-19T19:37:57.488Z,3.90
2017-12-19T19:40:25.780Z,3.90
2017-12-19T19:42:54.044Z,3.90
2017-12-19T19:45:22.330Z,3.80
2017-12-19T19:47:50.584Z,3.80
2017-12-19T19:50:19.282Z,3.90
2017-12-19T19:52:47.569Z,3.90
2017-12-19T19:55:15.844Z,3.80
2017-12-19T19:57:44.146Z,3.70
2017-12-19T20:00:13.159Z,3.70
2017-12-19T20:02:42.189Z,3.70
2017-12-19T20:05:10.553Z,3.70
2017-12-19T20:07:39.950Z,3.70
2017-12-19T20:10:08.186Z,3.70
2017-12-19T20:12:37.237Z,3.80
2017-12-19T20:15:05.539Z,3.80
2017-12-19T20:17:33.796Z,3.70
2017-12-19T20:20:02.393Z,3.70
2017-12-19T20:22:30.653Z,3.70
2017-12-19T20:24:58.900Z,3.80
2017-12-19T20:27:27.287Z,3.70
2017-12-19T20:29:55.585Z,3.70
2017-12-19T20:32:24.426Z,3.80
2017-12-19T20:34:52.673Z,3.80
2017-12-19T20:37:20.978Z,3.70
2017-12-19T20:39:49.314Z,3.80
2017-12-19T20:42:17.589Z,3.70
2017-12-19T20:44:46.205Z,3.70
2017-12-19T20:47:14.476Z,3.70
2017-12-19T20:49:42.729Z,3.70
2017-12-19T20:52:11.004Z,3.80
2017-12-19T20:54:39.258Z,3.80
2017-12-19T20:57:07.523Z,3.80
2017-12-19T20:59:35.808Z,3.80
2017-12-19T21:02:04.058Z,3.80
2017-12-19T21:04:33.086Z,3.90
2017-12-19T21:07:01.382Z,3.90
2017-12-19T21:09:30.008Z,3.90
2017-12-19T21:11:58.295Z,3.90
2017-12-19T21:14:26.565Z,3.90
2017-12-19T21:16:55.624Z,3.90
2017-12-19T21:19:23.901Z,3.90
2017-12-19T21:21:52.520Z,3.90
2017-12-19T21:24:20.802Z,3.90
2017-12-19T21:26:49.083Z,3.90
2017-12-19T21:29:17.343Z,4.00
2017-12-19T21:31:45.624Z,4.00
2017-12-19T21:34:13.923Z,4.00
2017-12-19T21:36:42.933Z,4.10
2017-12-19T21:39:11.544Z,4.10
2017-12-19T21:41:39.822Z,4.10
2017-12-19T21:44:08.101Z,4.10
2017-12-19T21:46:36.415Z,4.10
2017-12-19T21:49:04.679Z,4.10
2017-12-19T21:51:32.977Z,4.20
2017-12-19T21:54:01.252Z,4.20
2017-12-19T21:56:29.868Z,4.20
2017-12-19T21:58:58.161Z,4.20
2017-12-19T22:01:26.626Z,4.20
2017-12-19T22:03:54.949Z,4.20
2017-12-19T22:06:23.235Z,4.20
2017-12-19T22:08:51.841Z,4.20
2017-12-19T22:11:20.141Z,4.20
2017-12-19T22:13:48.435Z,4.20
2017-12-19T22:16:16.676Z,4.20
2017-12-19T22:18:45.720Z,4.20
2017-12-19T22:21:14.033Z,4.20
2017-12-19T22:23:42.253Z,4.30
2017-12-19T22:26:10.900Z,4.30
2017-12-19T22:28:39.134Z,4.30
2017-12-19T22:31:07.369Z,4.30
2017-12-19T22:33:36.391Z,4.30
2017-12-19T22:36:04.657Z,4.30
2017-12-19T22:38:32.980Z,4.30
2017-12-19T22:41:01.214Z,4.30
2017-12-19T22:43:29.909Z,4.30
2017-12-19T22:45:58.175Z,4.30
2017-12-19T22:48:26.435Z,4.30
2017-12-19T22:50:55.454Z,4.30
2017-12-19T22:53:23.710Z,4.30
2017-12-19T22:55:53.061Z,4.40
2017-12-19T22:58:21.336Z,4.40
2017-12-19T23:00:49.731Z,4.40
2017-12-19T23:03:17.966Z,4.40
2017-12-19T23:05:46.236Z,4.30
2017-12-19T23:08:14.807Z,4.40
2017-12-19T23:10:43.082Z,4.40
2017-12-19T23:13:12.120Z,4.40
2017-12-19T23:15:40.404Z,4.40
2017-12-19T23:18:08.662Z,4.40
2017-12-19T23:20:37.222Z,4.40
2017-12-19T23:23:05.501Z,4.40
2017-12-19T23:25:33.775Z,4.50
2017-12-19T23:28:02.796Z,4.40
2017-12-19T23:30:31.044Z,4.40
2017-12-19T23:33:00.060Z,4.50
2017-12-19T23:35:28.324Z,4.40
2017-12-19T23:37:56.974Z,4.40
2017-12-19T23:40:25.216Z,4.40
2017-12-19T23:42:53.528Z,4.40
2017-12-19T23:45:21.852Z,4.40
2017-12-19T23:47:50.133Z,4.40
2017-12-19T23:50:18.739Z,4.50
2017-12-19T23:52:47.009Z,4.50
2017-12-19T23:55:15.237Z,4.50
2017-12-19T23:57:44.304Z,4.50
